sensor_id;sensor_type;location;lat;lon;timestamp;temperature;humidity
78541;SHT31;67835;51.968;5.646;2024-02-21T00:01:02;12.1;68.2
78541;SHT31;67835;51.968;5.646;2024-02-21T00:03:31;12.1;68.2
78541;SHT31;67835;51.968;5.646;2024-02-21T00:06:00;12.1;68.2
78541;SHT31;67835;51.968;5.646;2024-02-21T00:08:28;12.1;68.2
78541;SHT31;67835;51.968;5.646;2024-02-21T00:10:57;12.1;68.3
78541;SHT31;67835;51.968;5.646;2024-02-21T00:13:25;12.1;68.3
78541;SHT31;67835;51.968;5.646;2024-02-21T00:15:54;12.1;68.3
78541;SHT31;67835;51.968;5.646;2024-02-21T00:18:22;12.1;68.2
78541;SHT31;67835;51.968;5.646;2024-02-21T00:20:52;12.2;68.3
78541;SHT31;67835;51.968;5.646;2024-02-21T00:23:21;12.2;68.1
78541;SHT31;67835;51.968;5.646;2024-02-21T00:25:49;12.2;68.1
78541;SHT31;67835;51.968;5.646;2024-02-21T00:28:18;12.2;68.1
78541;SHT31;67835;51.968;5.646;2024-02-21T00:30:47;12.2;68.0
78541;SHT31;67835;51.968;5.646;2024-02-21T00:33:18;12.2;68.0
78541;SHT31;67835;51.968;5.646;2024-02-21T00:35:47;12.2;68.1
78541;SHT31;67835;51.968;5.646;2024-02-21T00:38:15;12.2;68.1
78541;SHT31;67835;51.968;5.646;2024-02-21T00:40:44;12.2;67.9
78541;SHT31;67835;51.968;5.646;2024-02-21T00:43:12;12.2;67.9
78541;SHT31;67835;51.968;5.646;2024-02-21T00:45:41;12.2;68.0
78541;SHT31;67835;51.968;5.646;2024-02-21T00:48:10;12.1;68.0
78541;SHT31;67835;51.968;5.646;2024-02-21T00:50:38;12.1;68.0
78541;SHT31;67835;51.968;5.646;2024-02-21T00:53:07;12.1;68.0
78541;SHT31;67835;51.968;5.646;2024-02-21T00:55:36;12.1;67.9
78541;SHT31;67835;51.968;5.646;2024-02-21T00:58:05;12.1;67.8
78541;SHT31;67835;51.968;5.646;2024-02-21T01:00:34;12.1;67.9
78541;SHT31;67835;51.968;5.646;2024-02-21T01:03:03;12.1;67.8
78541;SHT31;67835;51.968;5.646;2024-02-21T01:05:31;12.1;67.8
78541;SHT31;67835;51.968;5.646;2024-02-21T01:08:00;12.1;67.9
78541;SHT31;67835;51.968;5.646;2024-02-21T01:10:28;12.1;67.9
78541;SHT31;67835;51.968;5.646;2024-02-21T01:12:57;12.1;67.9
78541;SHT31;67835;51.968;5.646;2024-02-21T01:15:25;12.1;67.9
78541;SHT31;67835;51.968;5.646;2024-02-21T01:17:54;12.1;67.8
78541;SHT31;67835;51.968;5.646;2024-02-21T01:20:22;12.1;67.7
78541;SHT31;67835;51.968;5.646;2024-02-21T01:22:51;12.1;67.9
78541;SHT31;67835;51.968;5.646;2024-02-21T01:25:19;12.1;68.0
78541;SHT31;67835;51.968;5.646;2024-02-21T01:27:47;12.1;68.3
78541;SHT31;67835;51.968;5.646;2024-02-21T01:30:17;12.1;68.2
78541;SHT31;67835;51.968;5.646;2024-02-21T01:32:46;12.1;68.2
78541;SHT31;67835;51.968;5.646;2024-02-21T01:35:14;12.1;68.2
78541;SHT31;67835;51.968;5.646;2024-02-21T01:37:43;12.1;68.1
78541;SHT31;67835;51.968;5.646;2024-02-21T01:40:12;12.1;67.9
78541;SHT31;67835;51.968;5.646;2024-02-21T01:42:41;12.1;67.8
78541;SHT31;67835;51.968;5.646;2024-02-21T01:45:10;12.1;67.9
78541;SHT31;67835;51.968;5.646;2024-02-21T01:47:39;12.1;67.6
78541;SHT31;67835;51.968;5.646;2024-02-21T01:50:09;12.2;67.5
78541;SHT31;67835;51.968;5.646;2024-02-21T01:52:37;12.2;67.4
78541;SHT31;67835;51.968;5.646;2024-02-21T01:55:07;12.2;67.4
78541;SHT31;67835;51.968;5.646;2024-02-21T01:57:40;12.2;67.2
78541;SHT31;67835;51.968;5.646;2024-02-21T02:00:10;12.2;67.3
78541;SHT31;67835;51.968;5.646;2024-02-21T02:02:40;12.2;67.3
78541;SHT31;67835;51.968;5.646;2024-02-21T02:05:11;12.2;67.2
78541;SHT31;67835;51.968;5.646;2024-02-21T02:07:40;12.2;67.2
78541;SHT31;67835;51.968;5.646;2024-02-21T02:10:09;12.2;67.3
78541;SHT31;67835;51.968;5.646;2024-02-21T02:12:38;12.2;67.3
78541;SHT31;67835;51.968;5.646;2024-02-21T02:15:08;12.2;67.2
78541;SHT31;67835;51.968;5.646;2024-02-21T02:17:37;12.2;67.1
78541;SHT31;67835;51.968;5.646;2024-02-21T02:20:06;12.2;67.0
78541;SHT31;67835;51.968;5.646;2024-02-21T02:22:37;12.1;67.3
78541;SHT31;67835;51.968;5.646;2024-02-21T02:25:10;12.1;67.3
78541;SHT31;67835;51.968;5.646;2024-02-21T02:27:43;12.1;67.4
78541;SHT31;67835;51.968;5.646;2024-02-21T02:30:13;12.1;67.3
78541;SHT31;67835;51.968;5.646;2024-02-21T02:32:45;12.1;67.3
78541;SHT31;67835;51.968;5.646;2024-02-21T02:35:14;12.1;67.2
78541;SHT31;67835;51.968;5.646;2024-02-21T02:37:49;12.1;67.3
78541;SHT31;67835;51.968;5.646;2024-02-21T02:40:19;12.1;67.2
78541;SHT31;67835;51.968;5.646;2024-02-21T02:42:48;12.1;67.4
78541;SHT31;67835;51.968;5.646;2024-02-21T02:45:18;12.1;67.3
78541;SHT31;67835;51.968;5.646;2024-02-21T02:47:46;12.1;67.5
78541;SHT31;67835;51.968;5.646;2024-02-21T02:50:15;12.1;67.4
78541;SHT31;67835;51.968;5.646;2024-02-21T02:52:44;12.1;67.4
78541;SHT31;67835;51.968;5.646;2024-02-21T02:55:14;12.1;67.6
78541;SHT31;67835;51.968;5.646;2024-02-21T02:57:43;12.1;67.5
78541;SHT31;67835;51.968;5.646;2024-02-21T03:00:14;12.1;67.5
78541;SHT31;67835;51.968;5.646;2024-02-21T03:02:45;12.1;67.4
78541;SHT31;67835;51.968;5.646;2024-02-21T03:05:16;12.1;67.5
78541;SHT31;67835;51.968;5.646;2024-02-21T03:07:45;12.1;67.4
78541;SHT31;67835;51.968;5.646;2024-02-21T03:10:15;12.1;67.5
78541;SHT31;67835;51.968;5.646;2024-02-21T03:12:44;12.1;67.7
78541;SHT31;67835;51.968;5.646;2024-02-21T03:15:13;12.1;67.8
78541;SHT31;67835;51.968;5.646;2024-02-21T03:17:42;12.1;67.7
78541;SHT31;67835;51.968;5.646;2024-02-21T03:20:11;12.1;67.7
78541;SHT31;67835;51.968;5.646;2024-02-21T03:22:41;12.1;67.8
78541;SHT31;67835;51.968;5.646;2024-02-21T03:25:10;12.1;67.8
78541;SHT31;67835;51.968;5.646;2024-02-21T03:27:40;12.1;67.9
78541;SHT31;67835;51.968;5.646;2024-02-21T03:30:09;12.1;67.9
78541;SHT31;67835;51.968;5.646;2024-02-21T03:32:40;12.1;68.0
78541;SHT31;67835;51.968;5.646;2024-02-21T03:35:09;12.0;68.0
78541;SHT31;67835;51.968;5.646;2024-02-21T03:37:37;12.0;68.0
78541;SHT31;67835;51.968;5.646;2024-02-21T03:40:09;12.0;68.0
78541;SHT31;67835;51.968;5.646;2024-02-21T03:42:38;12.0;67.9
78541;SHT31;67835;51.968;5.646;2024-02-21T03:45:07;12.0;68.0
78541;SHT31;67835;51.968;5.646;2024-02-21T03:47:36;12.0;68.0
78541;SHT31;67835;51.968;5.646;2024-02-21T03:50:06;12.0;68.1
78541;SHT31;67835;51.968;5.646;2024-02-21T03:52:35;12.0;68.1
78541;SHT31;67835;51.968;5.646;2024-02-21T03:55:04;12.0;68.3
78541;SHT31;67835;51.968;5.646;2024-02-21T03:57:34;12.0;68.2
78541;SHT31;67835;51.968;5.646;2024-02-21T04:00:02;12.0;68.1
78541;SHT31;67835;51.968;5.646;2024-02-21T04:02:35;12.0;68.1
78541;SHT31;67835;51.968;5.646;2024-02-21T04:05:03;12.0;68.3
78541;SHT31;67835;51.968;5.646;2024-02-21T04:07:37;12.0;68.2
78541;SHT31;67835;51.968;5.646;2024-02-21T04:10:07;11.9;68.3
78541;SHT31;67835;51.968;5.646;2024-02-21T04:12:36;11.9;68.3
78541;SHT31;67835;51.968;5.646;2024-02-21T04:15:09;11.9;68.2
78541;SHT31;67835;51.968;5.646;2024-02-21T04:17:38;11.9;68.2
78541;SHT31;67835;51.968;5.646;2024-02-21T04:20:15;11.9;68.3
78541;SHT31;67835;51.968;5.646;2024-02-21T04:22:45;11.9;68.3
78541;SHT31;67835;51.968;5.646;2024-02-21T04:25:13;11.9;68.3
78541;SHT31;67835;51.968;5.646;2024-02-21T04:27:42;11.9;68.4
78541;SHT31;67835;51.968;5.646;2024-02-21T04:30:11;11.9;68.4
78541;SHT31;67835;51.968;5.646;2024-02-21T04:32:42;11.8;68.4
78541;SHT31;67835;51.968;5.646;2024-02-21T04:35:10;11.8;68.5
78541;SHT31;67835;51.968;5.646;2024-02-21T04:37:39;11.8;68.6
78541;SHT31;67835;51.968;5.646;2024-02-21T04:40:08;11.8;68.6
78541;SHT31;67835;51.968;5.646;2024-02-21T04:42:37;11.8;68.7
78541;SHT31;67835;51.968;5.646;2024-02-21T04:45:06;11.8;68.7
78541;SHT31;67835;51.968;5.646;2024-02-21T04:47:35;11.8;68.7
78541;SHT31;67835;51.968;5.646;2024-02-21T04:50:04;11.8;68.7
78541;SHT31;67835;51.968;5.646;2024-02-21T04:52:33;11.8;68.7
78541;SHT31;67835;51.968;5.646;2024-02-21T04:55:02;11.8;68.7
78541;SHT31;67835;51.968;5.646;2024-02-21T04:57:32;11.8;68.8
78541;SHT31;67835;51.968;5.646;2024-02-21T05:00:01;11.7;68.8
78541;SHT31;67835;51.968;5.646;2024-02-21T05:02:30;11.7;68.9
78541;SHT31;67835;51.968;5.646;2024-02-21T05:04:58;11.7;68.8
78541;SHT31;67835;51.968;5.646;2024-02-21T05:07:27;11.7;68.7
78541;SHT31;67835;51.968;5.646;2024-02-21T05:09:55;11.7;68.8
78541;SHT31;67835;51.968;5.646;2024-02-21T05:12:24;11.7;68.8
78541;SHT31;67835;51.968;5.646;2024-02-21T05:14:52;11.7;68.9
78541;SHT31;67835;51.968;5.646;2024-02-21T05:17:22;11.7;68.9
78541;SHT31;67835;51.968;5.646;2024-02-21T05:19:51;11.7;68.9
78541;SHT31;67835;51.968;5.646;2024-02-21T05:22:19;11.7;69.0
78541;SHT31;67835;51.968;5.646;2024-02-21T05:24:48;11.6;69.0
78541;SHT31;67835;51.968;5.646;2024-02-21T05:27:17;11.6;69.1
78541;SHT31;67835;51.968;5.646;2024-02-21T05:29:45;11.6;69.1
78541;SHT31;67835;51.968;5.646;2024-02-21T05:32:14;11.6;69.1
78541;SHT31;67835;51.968;5.646;2024-02-21T05:34:43;11.6;69.1
78541;SHT31;67835;51.968;5.646;2024-02-21T05:37:11;11.6;69.1
78541;SHT31;67835;51.968;5.646;2024-02-21T05:39:39;11.6;69.1
78541;SHT31;67835;51.968;5.646;2024-02-21T05:42:08;11.6;69.2
78541;SHT31;67835;51.968;5.646;2024-02-21T05:44:37;11.6;69.3
78541;SHT31;67835;51.968;5.646;2024-02-21T05:47:06;11.6;69.2
78541;SHT31;67835;51.968;5.646;2024-02-21T05:49:36;11.6;69.3
78541;SHT31;67835;51.968;5.646;2024-02-21T05:52:05;11.5;69.4
78541;SHT31;67835;51.968;5.646;2024-02-21T05:54:34;11.5;69.5
78541;SHT31;67835;51.968;5.646;2024-02-21T05:57:06;11.5;69.5
78541;SHT31;67835;51.968;5.646;2024-02-21T05:59:37;11.5;69.5
78541;SHT31;67835;51.968;5.646;2024-02-21T06:02:06;11.5;69.6
78541;SHT31;67835;51.968;5.646;2024-02-21T06:04:35;11.5;69.5
78541;SHT31;67835;51.968;5.646;2024-02-21T06:07:04;11.5;69.5
78541;SHT31;67835;51.968;5.646;2024-02-21T06:09:32;11.4;69.5
78541;SHT31;67835;51.968;5.646;2024-02-21T06:12:00;11.4;69.7
78541;SHT31;67835;51.968;5.646;2024-02-21T06:14:29;11.4;69.7
78541;SHT31;67835;51.968;5.646;2024-02-21T06:16:58;11.4;69.7
78541;SHT31;67835;51.968;5.646;2024-02-21T06:19:26;11.4;69.7
78541;SHT31;67835;51.968;5.646;2024-02-21T06:21:55;11.4;69.7
78541;SHT31;67835;51.968;5.646;2024-02-21T06:24:23;11.4;69.7
78541;SHT31;67835;51.968;5.646;2024-02-21T06:26:52;11.4;69.7
78541;SHT31;67835;51.968;5.646;2024-02-21T06:29:20;11.4;69.7
78541;SHT31;67835;51.968;5.646;2024-02-21T06:31:48;11.4;69.7
78541;SHT31;67835;51.968;5.646;2024-02-21T06:34:17;11.4;69.7
78541;SHT31;67835;51.968;5.646;2024-02-21T06:36:46;11.4;69.6
78541;SHT31;67835;51.968;5.646;2024-02-21T06:39:15;11.4;69.7
78541;SHT31;67835;51.968;5.646;2024-02-21T06:41:43;11.4;69.7
78541;SHT31;67835;51.968;5.646;2024-02-21T06:44:15;11.4;69.7
78541;SHT31;67835;51.968;5.646;2024-02-21T06:46:43;11.4;69.7
78541;SHT31;67835;51.968;5.646;2024-02-21T06:49:12;11.4;69.7
78541;SHT31;67835;51.968;5.646;2024-02-21T06:51:42;11.4;69.5
78541;SHT31;67835;51.968;5.646;2024-02-21T06:54:11;11.4;69.5
78541;SHT31;67835;51.968;5.646;2024-02-21T06:56:40;11.4;69.5
78541;SHT31;67835;51.968;5.646;2024-02-21T06:59:09;11.4;69.5
78541;SHT31;67835;51.968;5.646;2024-02-21T07:01:44;11.4;69.3
78541;SHT31;67835;51.968;5.646;2024-02-21T07:04:12;11.4;69.3
78541;SHT31;67835;51.968;5.646;2024-02-21T07:06:43;11.4;69.2
78541;SHT31;67835;51.968;5.646;2024-02-21T07:09:12;11.4;69.1
78541;SHT31;67835;51.968;5.646;2024-02-21T07:11:40;11.4;69.1
78541;SHT31;67835;51.968;5.646;2024-02-21T07:14:09;11.4;69.2
78541;SHT31;67835;51.968;5.646;2024-02-21T07:16:37;11.4;69.2
78541;SHT31;67835;51.968;5.646;2024-02-21T07:19:06;11.4;69.0
78541;SHT31;67835;51.968;5.646;2024-02-21T07:21:35;11.4;69.0
78541;SHT31;67835;51.968;5.646;2024-02-21T07:24:05;11.4;68.9
78541;SHT31;67835;51.968;5.646;2024-02-21T07:26:34;11.4;68.9
78541;SHT31;67835;51.968;5.646;2024-02-21T07:29:02;11.4;68.6
78541;SHT31;67835;51.968;5.646;2024-02-21T07:31:31;11.4;68.7
78541;SHT31;67835;51.968;5.646;2024-02-21T07:33:59;11.4;68.6
78541;SHT31;67835;51.968;5.646;2024-02-21T07:36:30;11.4;68.6
78541;SHT31;67835;51.968;5.646;2024-02-21T07:38:58;11.4;68.4
78541;SHT31;67835;51.968;5.646;2024-02-21T07:41:27;11.4;68.5
78541;SHT31;67835;51.968;5.646;2024-02-21T07:43:57;11.5;68.4
78541;SHT31;67835;51.968;5.646;2024-02-21T07:46:26;11.5;68.5
78541;SHT31;67835;51.968;5.646;2024-02-21T07:48:56;11.5;68.6
78541;SHT31;67835;51.968;5.646;2024-02-21T07:51:27;11.5;68.5
78541;SHT31;67835;51.968;5.646;2024-02-21T07:53:56;11.5;68.4
78541;SHT31;67835;51.968;5.646;2024-02-21T07:56:27;11.5;68.5
78541;SHT31;67835;51.968;5.646;2024-02-21T07:58:57;11.5;68.7
78541;SHT31;67835;51.968;5.646;2024-02-21T08:01:26;11.5;68.6
78541;SHT31;67835;51.968;5.646;2024-02-21T08:03:54;11.5;68.7
78541;SHT31;67835;51.968;5.646;2024-02-21T08:06:22;11.5;68.3
78541;SHT31;67835;51.968;5.646;2024-02-21T08:08:51;11.5;68.2
78541;SHT31;67835;51.968;5.646;2024-02-21T08:11:21;11.6;68.1
78541;SHT31;67835;51.968;5.646;2024-02-21T08:13:50;11.6;68.0
78541;SHT31;67835;51.968;5.646;2024-02-21T08:16:18;11.6;68.0
78541;SHT31;67835;51.968;5.646;2024-02-21T08:18:48;11.7;67.3
78541;SHT31;67835;51.968;5.646;2024-02-21T08:21:19;11.7;67.5
78541;SHT31;67835;51.968;5.646;2024-02-21T08:23:47;11.7;67.2
78541;SHT31;67835;51.968;5.646;2024-02-21T08:26:18;11.7;67.4
78541;SHT31;67835;51.968;5.646;2024-02-21T08:28:46;11.8;67.2
78541;SHT31;67835;51.968;5.646;2024-02-21T08:31:20;11.8;67.1
78541;SHT31;67835;51.968;5.646;2024-02-21T08:33:51;11.8;66.8
78541;SHT31;67835;51.968;5.646;2024-02-21T08:36:20;11.8;66.7
78541;SHT31;67835;51.968;5.646;2024-02-21T08:38:48;11.8;66.6
78541;SHT31;67835;51.968;5.646;2024-02-21T08:41:16;11.9;66.4
78541;SHT31;67835;51.968;5.646;2024-02-21T08:43:45;11.9;66.2
78541;SHT31;67835;51.968;5.646;2024-02-21T08:46:14;11.9;66.2
78541;SHT31;67835;51.968;5.646;2024-02-21T08:48:43;11.9;66.0
78541;SHT31;67835;51.968;5.646;2024-02-21T08:51:12;11.9;65.8
78541;SHT31;67835;51.968;5.646;2024-02-21T08:53:41;11.9;66.1
78541;SHT31;67835;51.968;5.646;2024-02-21T08:56:12;11.9;66.2
78541;SHT31;67835;51.968;5.646;2024-02-21T08:58:41;12.0;65.9
78541;SHT31;67835;51.968;5.646;2024-02-21T09:01:10;12.0;65.8
78541;SHT31;67835;51.968;5.646;2024-02-21T09:03:39;12.0;66.0
78541;SHT31;67835;51.968;5.646;2024-02-21T09:06:10;12.0;65.9
78541;SHT31;67835;51.968;5.646;2024-02-21T09:08:39;12.0;65.8
78541;SHT31;67835;51.968;5.646;2024-02-21T09:11:10;12.0;65.7
78541;SHT31;67835;51.968;5.646;2024-02-21T09:13:39;12.0;65.6
78541;SHT31;67835;51.968;5.646;2024-02-21T09:16:08;12.1;65.6
78541;SHT31;67835;51.968;5.646;2024-02-21T09:18:37;12.1;65.3
78541;SHT31;67835;51.968;5.646;2024-02-21T09:21:06;12.1;65.5
78541;SHT31;67835;51.968;5.646;2024-02-21T09:23:34;12.1;65.5
78541;SHT31;67835;51.968;5.646;2024-02-21T09:26:03;12.1;65.5
78541;SHT31;67835;51.968;5.646;2024-02-21T09:28:32;12.2;65.3
78541;SHT31;67835;51.968;5.646;2024-02-21T09:31:00;12.2;65.5
78541;SHT31;67835;51.968;5.646;2024-02-21T09:33:29;12.2;65.3
78541;SHT31;67835;51.968;5.646;2024-02-21T09:35:58;12.3;64.7
78541;SHT31;67835;51.968;5.646;2024-02-21T09:38:27;12.3;64.9
78541;SHT31;67835;51.968;5.646;2024-02-21T09:40:59;12.3;65.0
78541;SHT31;67835;51.968;5.646;2024-02-21T09:43:29;12.3;64.9
78541;SHT31;67835;51.968;5.646;2024-02-21T09:45:58;12.4;64.7
78541;SHT31;67835;51.968;5.646;2024-02-21T09:48:33;12.4;64.8
78541;SHT31;67835;51.968;5.646;2024-02-21T09:51:06;12.4;64.3
78541;SHT31;67835;51.968;5.646;2024-02-21T09:53:38;12.5;64.4
78541;SHT31;67835;51.968;5.646;2024-02-21T09:56:08;12.5;64.2
78541;SHT31;67835;51.968;5.646;2024-02-21T09:58:37;12.6;64.2
78541;SHT31;67835;51.968;5.646;2024-02-21T10:01:07;12.7;64.1
78541;SHT31;67835;51.968;5.646;2024-02-21T10:03:36;12.7;63.3
78541;SHT31;67835;51.968;5.646;2024-02-21T10:06:04;12.7;63.2
78541;SHT31;67835;51.968;5.646;2024-02-21T10:08:35;12.8;63.3
78541;SHT31;67835;51.968;5.646;2024-02-21T10:11:03;12.8;63.6
78541;SHT31;67835;51.968;5.646;2024-02-21T10:13:32;12.9;63.5
78541;SHT31;67835;51.968;5.646;2024-02-21T10:16:06;13.0;62.8
78541;SHT31;67835;51.968;5.646;2024-02-21T10:18:35;13.1;62.7
78541;SHT31;67835;51.968;5.646;2024-02-21T10:21:07;13.2;62.1
78541;SHT31;67835;51.968;5.646;2024-02-21T10:23:44;13.2;62.1
78541;SHT31;67835;51.968;5.646;2024-02-21T10:26:13;13.2;62.3
78541;SHT31;67835;51.968;5.646;2024-02-21T10:28:42;13.2;62.1
78541;SHT31;67835;51.968;5.646;2024-02-21T10:31:23;13.2;62.4
78541;SHT31;67835;51.968;5.646;2024-02-21T10:33:56;13.1;62.8
78541;SHT31;67835;51.968;5.646;2024-02-21T10:36:27;13.1;63.4
78541;SHT31;67835;51.968;5.646;2024-02-21T10:38:56;13.1;63.5
78541;SHT31;67835;51.968;5.646;2024-02-21T10:41:25;13.1;63.8
78541;SHT31;67835;51.968;5.646;2024-02-21T10:43:55;13.0;64.2
78541;SHT31;67835;51.968;5.646;2024-02-21T10:46:24;13.0;64.5
78541;SHT31;67835;51.968;5.646;2024-02-21T10:49:04;13.0;64.6
78541;SHT31;67835;51.968;5.646;2024-02-21T10:51:40;12.9;64.9
78541;SHT31;67835;51.968;5.646;2024-02-21T10:54:24;12.9;65.1
78541;SHT31;67835;51.968;5.646;2024-02-21T10:56:58;12.9;65.1
78541;SHT31;67835;51.968;5.646;2024-02-21T10:59:31;12.9;65.2
78541;SHT31;67835;51.968;5.646;2024-02-21T11:02:00;12.9;65.3
78541;SHT31;67835;51.968;5.646;2024-02-21T11:04:31;12.9;65.3
78541;SHT31;67835;51.968;5.646;2024-02-21T11:07:03;12.9;65.0
78541;SHT31;67835;51.968;5.646;2024-02-21T11:09:33;13.0;64.8
78541;SHT31;67835;51.968;5.646;2024-02-21T11:12:03;13.0;64.6
78541;SHT31;67835;51.968;5.646;2024-02-21T11:14:33;13.0;64.9
78541;SHT31;67835;51.968;5.646;2024-02-21T11:17:16;13.0;64.3
78541;SHT31;67835;51.968;5.646;2024-02-21T11:19:47;13.0;64.1
78541;SHT31;67835;51.968;5.646;2024-02-21T11:22:19;13.0;64.2
78541;SHT31;67835;51.968;5.646;2024-02-21T11:24:50;13.1;63.4
78541;SHT31;67835;51.968;5.646;2024-02-21T11:27:22;13.0;63.1
78541;SHT31;67835;51.968;5.646;2024-02-21T11:29:57;13.0;63.6
78541;SHT31;67835;51.968;5.646;2024-02-21T11:32:27;13.0;62.9
78541;SHT31;67835;51.968;5.646;2024-02-21T11:34:58;13.0;62.3
78541;SHT31;67835;51.968;5.646;2024-02-21T11:37:31;13.0;62.6
78541;SHT31;67835;51.968;5.646;2024-02-21T11:40:01;12.9;62.7
78541;SHT31;67835;51.968;5.646;2024-02-21T11:42:33;12.9;62.8
78541;SHT31;67835;51.968;5.646;2024-02-21T11:45:01;12.9;63.1
78541;SHT31;67835;51.968;5.646;2024-02-21T11:47:30;12.9;63.2
78541;SHT31;67835;51.968;5.646;2024-02-21T11:50:01;12.9;63.2
78541;SHT31;67835;51.968;5.646;2024-02-21T11:52:30;12.8;63.2
78541;SHT31;67835;51.968;5.646;2024-02-21T11:54:59;12.8;62.9
78541;SHT31;67835;51.968;5.646;2024-02-21T11:57:31;12.8;63.3
78541;SHT31;67835;51.968;5.646;2024-02-21T12:00:14;12.8;62.8
78541;SHT31;67835;51.968;5.646;2024-02-21T12:02:44;12.8;63.2
78541;SHT31;67835;51.968;5.646;2024-02-21T12:05:14;12.8;63.3
78541;SHT31;67835;51.968;5.646;2024-02-21T12:07:43;12.8;63.6
78541;SHT31;67835;51.968;5.646;2024-02-21T12:10:12;12.8;63.4
78541;SHT31;67835;51.968;5.646;2024-02-21T12:12:41;12.8;63.4
78541;SHT31;67835;51.968;5.646;2024-02-21T12:15:10;12.8;63.7
78541;SHT31;67835;51.968;5.646;2024-02-21T12:17:39;12.9;63.3
78541;SHT31;67835;51.968;5.646;2024-02-21T12:20:11;13.0;63.0
78541;SHT31;67835;51.968;5.646;2024-02-21T12:22:43;13.0;62.9
78541;SHT31;67835;51.968;5.646;2024-02-21T12:25:18;13.1;62.2
78541;SHT31;67835;51.968;5.646;2024-02-21T12:27:49;13.2;62.3
78541;SHT31;67835;51.968;5.646;2024-02-21T12:30:18;13.3;61.7
78541;SHT31;67835;51.968;5.646;2024-02-21T12:32:47;13.3;61.8
78541;SHT31;67835;51.968;5.646;2024-02-21T12:35:16;13.4;60.9
78541;SHT31;67835;51.968;5.646;2024-02-21T12:37:45;13.4;60.8
78541;SHT31;67835;51.968;5.646;2024-02-21T12:40:14;13.4;60.9
78541;SHT31;67835;51.968;5.646;2024-02-21T12:42:44;13.5;60.8
78541;SHT31;67835;51.968;5.646;2024-02-21T12:45:14;13.5;61.3
78541;SHT31;67835;51.968;5.646;2024-02-21T12:47:44;13.5;60.6
78541;SHT31;67835;51.968;5.646;2024-02-21T12:50:12;13.5;60.7
78541;SHT31;67835;51.968;5.646;2024-02-21T12:52:41;13.6;60.2
78541;SHT31;67835;51.968;5.646;2024-02-21T12:55:10;13.6;60.5
78541;SHT31;67835;51.968;5.646;2024-02-21T12:57:40;13.6;60.1
78541;SHT31;67835;51.968;5.646;2024-02-21T13:00:09;13.6;59.7
78541;SHT31;67835;51.968;5.646;2024-02-21T13:02:38;13.6;59.9
78541;SHT31;67835;51.968;5.646;2024-02-21T13:05:07;13.6;60.2
78541;SHT31;67835;51.968;5.646;2024-02-21T13:07:38;13.6;60.1
78541;SHT31;67835;51.968;5.646;2024-02-21T13:10:07;13.7;59.6
78541;SHT31;67835;51.968;5.646;2024-02-21T13:12:36;13.7;60.0
78541;SHT31;67835;51.968;5.646;2024-02-21T13:15:06;13.7;59.5
78541;SHT31;67835;51.968;5.646;2024-02-21T13:17:38;13.7;60.0
78541;SHT31;67835;51.968;5.646;2024-02-21T13:20:08;13.7;60.1
78541;SHT31;67835;51.968;5.646;2024-02-21T13:22:37;13.7;59.8
78541;SHT31;67835;51.968;5.646;2024-02-21T13:25:06;13.7;59.6
78541;SHT31;67835;51.968;5.646;2024-02-21T13:27:37;13.7;59.8
78541;SHT31;67835;51.968;5.646;2024-02-21T13:30:06;13.7;60.0
78541;SHT31;67835;51.968;5.646;2024-02-21T13:32:36;13.8;59.4
78541;SHT31;67835;51.968;5.646;2024-02-21T13:35:06;13.8;59.4
78541;SHT31;67835;51.968;5.646;2024-02-21T13:37:38;13.8;59.4
78541;SHT31;67835;51.968;5.646;2024-02-21T13:40:08;13.8;59.4
78541;SHT31;67835;51.968;5.646;2024-02-21T13:42:37;13.8;59.2
78541;SHT31;67835;51.968;5.646;2024-02-21T13:45:07;13.8;59.2
78541;SHT31;67835;51.968;5.646;2024-02-21T13:47:36;13.8;58.7
78541;SHT31;67835;51.968;5.646;2024-02-21T13:50:06;13.8;58.9
78541;SHT31;67835;51.968;5.646;2024-02-21T13:52:37;13.8;59.1
78541;SHT31;67835;51.968;5.646;2024-02-21T13:55:09;13.7;59.5
78541;SHT31;67835;51.968;5.646;2024-02-21T13:57:37;13.7;59.5
78541;SHT31;67835;51.968;5.646;2024-02-21T14:00:07;13.7;59.2
78541;SHT31;67835;51.968;5.646;2024-02-21T14:02:37;13.7;59.2
78541;SHT31;67835;51.968;5.646;2024-02-21T14:05:07;13.7;59.3
78541;SHT31;67835;51.968;5.646;2024-02-21T14:07:35;13.7;59.5
78541;SHT31;67835;51.968;5.646;2024-02-21T14:10:05;13.7;59.5
78541;SHT31;67835;51.968;5.646;2024-02-21T14:12:35;13.7;59.1
78541;SHT31;67835;51.968;5.646;2024-02-21T14:15:05;13.7;59.3
78541;SHT31;67835;51.968;5.646;2024-02-21T14:17:35;13.7;59.2
78541;SHT31;67835;51.968;5.646;2024-02-21T14:20:04;13.7;59.3
78541;SHT31;67835;51.968;5.646;2024-02-21T14:22:33;13.7;59.2
78541;SHT31;67835;51.968;5.646;2024-02-21T14:25:04;13.7;59.4
78541;SHT31;67835;51.968;5.646;2024-02-21T14:27:32;13.6;59.3
78541;SHT31;67835;51.968;5.646;2024-02-21T14:30:02;13.6;59.2
78541;SHT31;67835;51.968;5.646;2024-02-21T14:32:31;13.6;59.0
78541;SHT31;67835;51.968;5.646;2024-02-21T14:35:00;13.6;58.9
78541;SHT31;67835;51.968;5.646;2024-02-21T14:37:30;13.6;58.6
78541;SHT31;67835;51.968;5.646;2024-02-21T14:39:59;13.6;57.9
78541;SHT31;67835;51.968;5.646;2024-02-21T14:42:29;13.6;58.3
78541;SHT31;67835;51.968;5.646;2024-02-21T14:45:00;13.6;58.2
78541;SHT31;67835;51.968;5.646;2024-02-21T14:47:33;13.6;58.1
78541;SHT31;67835;51.968;5.646;2024-02-21T14:50:02;13.6;58.4
78541;SHT31;67835;51.968;5.646;2024-02-21T14:52:31;13.6;58.7
78541;SHT31;67835;51.968;5.646;2024-02-21T14:55:02;13.5;59.2
78541;SHT31;67835;51.968;5.646;2024-02-21T14:57:34;13.5;60.0
78541;SHT31;67835;51.968;5.646;2024-02-21T15:00:06;13.5;60.0
78541;SHT31;67835;51.968;5.646;2024-02-21T15:02:36;13.5;60.3
78541;SHT31;67835;51.968;5.646;2024-02-21T15:05:06;13.4;60.7
78541;SHT31;67835;51.968;5.646;2024-02-21T15:07:35;13.4;61.2
78541;SHT31;67835;51.968;5.646;2024-02-21T15:10:04;13.4;60.6
78541;SHT31;67835;51.968;5.646;2024-02-21T15:12:33;13.4;61.1
78541;SHT31;67835;51.968;5.646;2024-02-21T15:15:01;13.3;61.4
78541;SHT31;67835;51.968;5.646;2024-02-21T15:17:30;13.3;62.1
78541;SHT31;67835;51.968;5.646;2024-02-21T15:20:00;13.2;62.4
78541;SHT31;67835;51.968;5.646;2024-02-21T15:22:28;13.2;63.1
78541;SHT31;67835;51.968;5.646;2024-02-21T15:24:57;13.1;63.5
78541;SHT31;67835;51.968;5.646;2024-02-21T15:27:26;13.0;63.8
78541;SHT31;67835;51.968;5.646;2024-02-21T15:29:56;12.9;64.5
78541;SHT31;67835;51.968;5.646;2024-02-21T15:32:26;12.9;65.0
78541;SHT31;67835;51.968;5.646;2024-02-21T15:34:56;12.8;65.5
78541;SHT31;67835;51.968;5.646;2024-02-21T15:37:24;12.7;65.6
78541;SHT31;67835;51.968;5.646;2024-02-21T15:39:53;12.7;66.2
78541;SHT31;67835;51.968;5.646;2024-02-21T15:42:21;12.6;66.6
78541;SHT31;67835;51.968;5.646;2024-02-21T15:44:49;12.5;66.9
78541;SHT31;67835;51.968;5.646;2024-02-21T15:47:18;12.4;67.4
78541;SHT31;67835;51.968;5.646;2024-02-21T15:49:50;12.4;67.5
78541;SHT31;67835;51.968;5.646;2024-02-21T15:52:19;12.3;67.7
78541;SHT31;67835;51.968;5.646;2024-02-21T15:54:48;12.3;68.2
78541;SHT31;67835;51.968;5.646;2024-02-21T15:57:17;12.2;68.8
78541;SHT31;67835;51.968;5.646;2024-02-21T15:59:46;12.1;69.1
78541;SHT31;67835;51.968;5.646;2024-02-21T16:02:16;12.0;69.6
78541;SHT31;67835;51.968;5.646;2024-02-21T16:04:44;12.0;69.8
78541;SHT31;67835;51.968;5.646;2024-02-21T16:07:13;11.9;69.8
78541;SHT31;67835;51.968;5.646;2024-02-21T16:09:41;11.8;70.2
78541;SHT31;67835;51.968;5.646;2024-02-21T16:12:12;11.8;70.3
78541;SHT31;67835;51.968;5.646;2024-02-21T16:14:42;11.7;70.5
78541;SHT31;67835;51.968;5.646;2024-02-21T16:17:14;11.6;71.0